createdAt,value
2019-04-07T00:02:14.230Z,91.97
2019-04-07T00:04:43.025Z,87.23
2019-04-07T00:07:13.743Z,77.33
2019-04-07T00:09:42.570Z,83.17
2019-04-07T00:12:11.313Z,81.37
2019-04-07T00:14:40.044Z,83.27
2019-04-07T00:17:09.295Z,89.33
2019-04-07T00:19:38.074Z,85.63
2019-04-07T00:22:06.874Z,84.23
2019-04-07T00:24:35.637Z,89.23
2019-04-07T00:27:04.529Z,79.30
2019-04-07T00:29:33.287Z,84.50
2019-04-07T00:32:02.533Z,89.60
2019-04-07T00:34:31.292Z,85.80
2019-04-07T00:37:00.102Z,85.17
2019-04-07T00:39:28.883Z,82.83
2019-04-07T00:41:58.248Z,88.57
2019-04-07T00:44:27.135Z,87.90
2019-04-07T00:46:55.885Z,83.87
2019-04-07T00:49:24.692Z,84.77
2019-04-07T00:51:53.846Z,84.50
2019-04-07T00:54:22.774Z,85.83
2019-04-07T00:56:51.778Z,90.40
2019-04-07T00:59:20.785Z,81.53
2019-04-07T01:01:50.344Z,84.03
2019-04-07T01:04:19.196Z,80.73
2019-04-07T01:06:48.294Z,86.23
2019-04-07T01:09:17.273Z,83.10
2019-04-07T01:11:46.158Z,87.90
2019-04-07T01:14:14.933Z,83.53
2019-04-07T01:16:44.057Z,84.83
2019-04-07T01:19:13.370Z,86.57
2019-04-07T01:21:42.276Z,88.70
2019-04-07T01:24:11.093Z,84.37
2019-04-07T01:26:40.487Z,84.70
2019-04-07T01:29:09.354Z,86.33
2019-04-07T01:31:38.071Z,86.90
2019-04-07T01:34:07.523Z,79.63
2019-04-07T01:36:36.946Z,73.83
2019-04-07T01:39:06.635Z,75.90
2019-04-07T01:41:35.605Z,76.67
2019-04-07T01:44:04.793Z,75.03
2019-04-07T01:46:33.911Z,72.50
2019-04-07T01:49:03.104Z,70.77
2019-04-07T01:51:32.221Z,72.60
2019-04-07T01:54:01.052Z,69.17
2019-04-07T01:56:30.461Z,74.33
2019-04-07T01:58:59.889Z,69.17
2019-04-07T02:01:28.682Z,68.57
2019-04-07T02:03:57.547Z,66.50
2019-04-07T02:06:26.610Z,69.13
2019-04-07T02:08:55.771Z,65.73
2019-04-07T02:11:24.553Z,64.30
2019-04-07T02:13:53.332Z,67.57
2019-04-07T02:16:22.094Z,65.13
2019-04-07T02:18:50.819Z,68.93
2019-04-07T02:21:19.744Z,64.70
2019-04-07T02:23:48.551Z,68.07
2019-04-07T02:26:17.801Z,64.13
2019-04-07T02:28:47.246Z,65.40
2019-04-07T02:31:16.972Z,64.10
2019-04-07T02:33:45.957Z,68.07
2019-04-07T02:36:21.982Z,66.83
2019-04-07T02:38:45.644Z,66.20
2019-04-07T02:41:14.424Z,68.70
2019-04-07T02:43:43.218Z,64.73
2019-04-07T02:46:12.883Z,65.87
2019-04-07T02:48:42.680Z,68.47
2019-04-07T02:51:11.600Z,68.83
2019-04-07T02:53:41.018Z,69.50
2019-04-07T02:56:09.989Z,76.83
2019-04-07T02:58:38.932Z,67.13
2019-04-07T03:01:07.718Z,72.80
2019-04-07T03:03:36.916Z,66.07
2019-04-07T03:06:05.768Z,67.27
2019-04-07T03:08:35.599Z,67.80
2019-04-07T03:11:05.520Z,69.70
2019-04-07T03:13:35.074Z,71.30
2019-04-07T03:16:04.488Z,70.17
2019-04-07T03:18:34.314Z,74.03
2019-04-07T03:21:03.330Z,72.17
2019-04-07T03:23:32.218Z,65.10
2019-04-07T03:26:00.967Z,73.33
2019-04-07T03:28:30.475Z,69.73
2019-04-07T03:30:59.744Z,64.53
2019-04-07T03:33:30.774Z,61.93
2019-04-07T03:36:01.726Z,63.73
2019-04-07T03:38:29.574Z,60.97
2019-04-07T03:40:59.134Z,64.93
2019-04-07T03:43:28.169Z,58.47
2019-04-07T03:45:57.270Z,59.20
2019-04-07T03:48:26.420Z,54.67
2019-04-07T03:50:55.365Z,61.13
2019-04-07T03:53:24.386Z,59.63
2019-04-07T03:55:53.508Z,55.97
2019-04-07T03:58:22.748Z,59.10
2019-04-07T04:00:57.034Z,61.47
2019-04-07T04:03:25.992Z,59.30
2019-04-07T04:05:55.171Z,63.67
2019-04-07T04:08:24.493Z,56.33
2019-04-07T04:10:53.445Z,53.90
2019-04-07T04:13:23.051Z,60.00
2019-04-07T04:15:51.997Z,60.03
2019-04-07T04:18:20.865Z,56.20
2019-04-07T04:20:49.806Z,56.40
2019-04-07T04:23:18.586Z,58.37
2019-04-07T04:25:47.484Z,57.77
2019-04-07T04:28:16.403Z,58.00
2019-04-07T04:30:45.221Z,57.53
2019-04-07T04:33:13.942Z,57.93
2019-04-07T04:35:42.850Z,57.47
2019-04-07T04:38:12.180Z,56.73
2019-04-07T04:40:41.017Z,55.23
2019-04-07T04:43:10.420Z,59.70
2019-04-07T04:45:39.241Z,59.60
2019-04-07T04:48:08.741Z,53.97
2019-04-07T04:50:38.401Z,58.63
2019-04-07T04:53:09.207Z,54.03
2019-04-07T04:55:37.686Z,54.80
2019-04-07T04:58:07.112Z,58.90
2019-04-07T05:00:36.266Z,54.53
2019-04-07T05:03:05.181Z,60.77
2019-04-07T05:05:34.544Z,57.90
2019-04-07T05:08:05.183Z,57.07
2019-04-07T05:10:33.916Z,55.63
2019-04-07T05:13:02.736Z,57.63
2019-04-07T05:15:32.557Z,56.83
2019-04-07T05:18:01.690Z,51.83
2019-04-07T05:20:30.574Z,53.43
2019-04-07T05:22:59.826Z,54.07
2019-04-07T05:25:28.610Z,49.50
2019-04-07T05:27:57.926Z,50.23
2019-04-07T05:30:27.289Z,53.87
2019-04-07T05:32:57.366Z,51.40
2019-04-07T05:35:26.161Z,46.03
2019-04-07T05:38:02.704Z,49.47
2019-04-07T05:40:25.632Z,53.37
2019-04-07T05:42:54.454Z,47.37
2019-04-07T05:45:23.863Z,51.33
2019-04-07T05:47:53.472Z,46.13
2019-04-07T05:50:24.517Z,45.97
2019-04-07T05:52:53.097Z,45.27
2019-04-07T05:55:24.100Z,45.77
2019-04-07T05:57:52.383Z,49.47
2019-04-07T06:00:21.834Z,44.27
2019-04-07T06:02:50.779Z,45.63
2019-04-07T06:05:19.721Z,47.23
2019-04-07T06:07:48.594Z,47.10
2019-04-07T06:10:18.246Z,49.57
2019-04-07T06:12:48.248Z,50.73
2019-04-07T06:15:21.566Z,48.00
2019-04-07T06:17:48.067Z,43.63
2019-04-07T06:20:17.800Z,47.07
2019-04-07T06:22:49.799Z,47.77
2019-04-07T06:25:18.763Z,50.80
2019-04-07T06:27:47.771Z,47.93
2019-04-07T06:30:17.590Z,49.80
2019-04-07T06:32:47.204Z,46.73
2019-04-07T06:35:16.149Z,48.50
2019-04-07T06:37:45.397Z,48.83
2019-04-07T06:40:14.341Z,50.60
2019-04-07T06:42:44.738Z,52.70
2019-04-07T06:45:14.028Z,48.07
2019-04-07T06:47:43.312Z,48.33
2019-04-07T06:50:14.150Z,50.37
2019-04-07T06:52:42.889Z,44.87
2019-04-07T06:55:13.571Z,49.93
2019-04-07T06:57:42.822Z,47.13
2019-04-07T07:00:12.020Z,49.17
2019-04-07T07:02:40.892Z,46.63
2019-04-07T07:05:12.055Z,48.27
2019-04-07T07:07:40.238Z,46.43
2019-04-07T07:10:09.480Z,45.70
2019-04-07T07:12:39.896Z,42.53
2019-04-07T07:15:09.194Z,41.60
2019-04-07T07:17:38.013Z,41.27
2019-04-07T07:20:06.978Z,43.83
2019-04-07T07:22:35.810Z,43.23
2019-04-07T07:25:05.202Z,44.50
2019-04-07T07:27:34.127Z,40.97
2019-04-07T07:30:03.807Z,43.77
2019-04-07T07:32:35.025Z,41.83
2019-04-07T07:35:05.088Z,41.60
2019-04-07T07:37:33.992Z,37.10
2019-04-07T07:40:06.792Z,40.90
2019-04-07T07:42:34.360Z,39.77
2019-04-07T07:45:03.754Z,42.70
2019-04-07T07:47:32.734Z,40.13
2019-04-07T07:50:04.917Z,40.90
2019-04-07T07:52:32.015Z,44.20
2019-04-07T07:55:01.781Z,40.70
2019-04-07T07:57:31.746Z,43.87
2019-04-07T08:00:04.566Z,39.67
2019-04-07T08:02:31.857Z,41.40
2019-04-07T08:05:00.786Z,47.13
2019-04-07T08:07:30.200Z,42.00
2019-04-07T08:09:59.613Z,46.80
2019-04-07T08:12:28.436Z,46.70
2019-04-07T08:14:58.317Z,44.63
2019-04-07T08:17:27.726Z,46.57
2019-04-07T08:19:56.724Z,44.27
2019-04-07T08:22:31.424Z,46.90
2019-04-07T08:24:56.015Z,41.40
2019-04-07T08:27:29.907Z,41.93
2019-04-07T08:29:56.042Z,40.60
2019-04-07T08:32:30.830Z,39.17
2019-04-07T08:35:01.629Z,42.57
2019-04-07T08:37:28.642Z,42.53
2019-04-07T08:39:57.998Z,39.33
2019-04-07T08:42:26.997Z,41.20
2019-04-07T08:44:59.245Z,43.40
2019-04-07T08:47:26.269Z,38.87
2019-04-07T08:49:57.605Z,39.13
2019-04-07T08:52:26.016Z,42.33
2019-04-07T08:54:55.535Z,43.87
2019-04-07T08:57:27.267Z,44.27
2019-04-07T08:59:55.063Z,40.00
2019-04-07T09:02:25.974Z,40.13
2019-04-07T09:04:54.657Z,35.57
2019-04-07T09:07:24.611Z,37.83
2019-04-07T09:09:53.390Z,29.00
2019-04-07T09:12:22.852Z,30.30
2019-04-07T09:14:52.567Z,28.00
2019-04-07T09:17:30.764Z,25.17
2019-04-07T09:19:54.375Z,28.13
2019-04-07T09:22:23.211Z,27.73
2019-04-07T09:24:52.118Z,26.50
2019-04-07T09:27:23.394Z,28.43
2019-04-07T09:29:51.429Z,29.70
2019-04-07T09:32:21.003Z,27.33
2019-04-07T09:34:52.865Z,31.27
2019-04-07T09:37:22.046Z,28.73
2019-04-07T09:39:57.821Z,32.97
2019-04-07T09:42:24.416Z,28.63
2019-04-07T09:44:51.688Z,25.67
2019-04-07T09:47:20.600Z,23.10
2019-04-07T09:49:50.377Z,23.50
2019-04-07T09:52:19.914Z,27.73
2019-04-07T09:54:51.832Z,24.67
2019-04-07T09:57:19.932Z,24.77
2019-04-07T09:59:52.495Z,19.27
2019-04-07T10:02:21.143Z,22.20
2019-04-07T10:04:49.951Z,22.13
2019-04-07T10:07:19.321Z,20.07
2019-04-07T10:09:48.338Z,19.80
2019-04-07T10:12:17.126Z,19.40
2019-04-07T10:14:46.547Z,18.53
2019-04-07T10:17:15.442Z,21.53
2019-04-07T10:19:44.674Z,20.77
2019-04-07T10:22:13.934Z,18.53
2019-04-07T10:24:42.755Z,20.10
2019-04-07T10:27:12.507Z,18.47
2019-04-07T10:29:41.305Z,21.63
2019-04-07T10:32:10.171Z,16.77
2019-04-07T10:34:39.010Z,18.97
2019-04-07T10:37:08.131Z,15.90
2019-04-07T10:39:37.094Z,16.27
2019-04-07T10:42:05.544Z,12.30
2019-04-07T10:44:34.192Z,10.13
2019-04-07T10:47:02.527Z,10.90
2019-04-07T10:49:30.867Z,10.00
2019-04-07T10:51:59.355Z,10.63
2019-04-07T10:54:27.677Z,8.60
2019-04-07T10:56:56.389Z,10.93
2019-04-07T10:59:25.586Z,10.93
2019-04-07T11:02:02.864Z,9.87
2019-04-07T11:04:31.674Z,15.07
2019-04-07T11:07:00.829Z,13.47
2019-04-07T11:09:29.990Z,18.80
2019-04-07T11:11:58.855Z,9.40
2019-04-07T11:14:27.195Z,7.43
2019-04-07T11:16:55.488Z,8.07
2019-04-07T11:19:24.193Z,8.90
2019-04-07T11:21:53.002Z,8.40
2019-04-07T11:24:22.082Z,11.93
2019-04-07T11:26:50.470Z,11.00
2019-04-07T11:29:20.396Z,11.30
2019-04-07T11:31:49.372Z,9.23
2019-04-07T11:34:19.909Z,9.10
2019-04-07T11:36:49.847Z,10.47
2019-04-07T11:39:18.946Z,9.87
2019-04-07T11:41:48.207Z,13.10
2019-04-07T11:44:19.206Z,10.33
2019-04-07T11:46:46.801Z,8.93
2019-04-07T11:49:16.033Z,10.30
2019-04-07T11:51:44.444Z,8.17
2019-04-07T11:54:13.025Z,7.70
2019-04-07T11:56:41.612Z,9.67
2019-04-07T11:59:10.227Z,8.50
2019-04-07T12:01:39.424Z,7.53
2019-04-07T12:04:07.990Z,8.60
2019-04-07T12:06:36.544Z,9.67
2019-04-07T12:09:06.613Z,8.73
2019-04-07T12:11:34.979Z,14.37
2019-04-07T12:14:04.109Z,11.90
2019-04-07T12:16:32.488Z,12.70
2019-04-07T12:19:00.817Z,12.73
2019-04-07T12:21:29.815Z,15.07
2019-04-07T12:23:58.354Z,10.97
2019-04-07T12:26:27.042Z,12.27
2019-04-07T12:28:56.081Z,13.47
2019-04-07T12:31:24.967Z,11.60
2019-04-07T12:33:53.788Z,12.87
2019-04-07T12:36:26.587Z,12.00
2019-04-07T12:38:52.282Z,12.90
2019-04-07T12:41:22.224Z,12.83
2019-04-07T12:43:51.571Z,14.10
2019-04-07T12:46:21.005Z,13.00
2019-04-07T12:48:50.053Z,11.57
2019-04-07T12:51:19.879Z,14.23
2019-04-07T12:53:49.030Z,11.90
2019-04-07T12:56:18.055Z,11.33
2019-04-07T12:58:47.528Z,14.43
2019-04-07T13:01:19.443Z,13.10
2019-04-07T13:03:47.256Z,12.57
2019-04-07T13:06:15.740Z,13.53
2019-04-07T13:08:44.868Z,12.40
2019-04-07T13:11:24.666Z,12.30
2019-04-07T13:13:43.907Z,12.53
2019-04-07T13:16:12.315Z,10.67
2019-04-07T13:18:40.685Z,11.63
2019-04-07T13:21:09.016Z,13.33
2019-04-07T13:23:37.374Z,14.37
2019-04-07T13:26:05.652Z,14.27
2019-04-07T13:28:34.059Z,12.23
2019-04-07T13:31:04.827Z,15.23
2019-04-07T13:33:33.252Z,16.83
2019-04-07T13:36:01.785Z,13.40
2019-04-07T13:38:30.184Z,11.93
2019-04-07T13:40:59.726Z,12.57
2019-04-07T13:43:31.180Z,11.80
2019-04-07T13:45:58.837Z,12.37
2019-04-07T13:48:27.302Z,13.13
2019-04-07T13:50:55.669Z,14.17
2019-04-07T13:53:26.977Z,12.13
2019-04-07T13:55:54.077Z,11.73
2019-04-07T13:58:22.483Z,13.00
2019-04-07T14:00:50.850Z,14.73
2019-04-07T14:03:23.361Z,11.00
2019-04-07T14:05:49.367Z,15.33
2019-04-07T14:08:17.685Z,13.53
2019-04-07T14:10:46.118Z,13.23
2019-04-07T14:13:14.796Z,12.50
2019-04-07T14:15:43.214Z,12.17
2019-04-07T14:18:12.389Z,13.20
2019-04-07T14:20:40.800Z,12.70
2019-04-07T14:23:09.115Z,13.93
2019-04-07T14:25:37.559Z,14.93
2019-04-07T14:28:06.067Z,14.77
2019-04-07T14:30:34.410Z,13.97
2019-04-07T14:33:03.442Z,13.83
2019-04-07T14:35:31.987Z,15.03
2019-04-07T14:38:00.377Z,16.30
2019-04-07T14:40:29.150Z,15.10
2019-04-07T14:42:58.203Z,14.43
2019-04-07T14:45:27.275Z,14.60
2019-04-07T14:47:55.625Z,14.80
2019-04-07T14:50:25.138Z,15.00
2019-04-07T14:52:53.673Z,17.03
2019-04-07T14:55:22.672Z,15.60
2019-04-07T14:57:51.332Z,14.60
2019-04-07T15:00:20.419Z,15.70
2019-04-07T15:02:49.699Z,15.20
2019-04-07T15:05:21.673Z,10.93
2019-04-07T15:07:48.443Z,14.07
2019-04-07T15:10:18.260Z,14.47
2019-04-07T15:12:46.920Z,14.83
2019-04-07T15:15:16.040Z,15.70
2019-04-07T15:17:44.411Z,15.07
2019-04-07T15:20:14.523Z,15.40
2019-04-07T15:22:45.914Z,16.17
2019-04-07T15:25:13.392Z,15.87
2019-04-07T15:27:41.858Z,14.13
2019-04-07T15:30:13.252Z,14.23
2019-04-07T15:32:40.541Z,16.67
2019-04-07T15:35:11.851Z,14.73
2019-04-07T15:37:40.642Z,16.87
2019-04-07T15:40:09.662Z,13.97
2019-04-07T15:42:43.382Z,17.37
2019-04-07T15:45:10.574Z,13.73
2019-04-07T15:47:39.201Z,17.00
2019-04-07T15:50:08.407Z,14.20
2019-04-07T15:52:37.023Z,15.57
2019-04-07T15:55:06.278Z,17.63
2019-04-07T15:57:35.033Z,16.47
2019-04-07T16:00:05.506Z,17.23
2019-04-07T16:02:34.593Z,16.47
2019-04-07T16:05:05.093Z,16.37
2019-04-07T16:07:37.261Z,14.30
2019-04-07T16:10:05.962Z,16.37
2019-04-07T16:12:43.688Z,19.27
2019-04-07T16:15:05.318Z,16.03
2019-04-07T16:17:34.809Z,15.30
2019-04-07T16:20:05.715Z,13.57
2019-04-07T16:22:34.214Z,16.47
2019-04-07T16:25:04.067Z,14.10
2019-04-07T16:27:34.927Z,13.80
2019-04-07T16:30:03.645Z,14.43
2019-04-07T16:32:32.729Z,21.67
2019-04-07T16:35:01.741Z,22.87
2019-04-07T16:37:31.055Z,17.60
2019-04-07T16:40:01.113Z,17.73
2019-04-07T16:42:30.924Z,14.27
2019-04-07T16:44:59.677Z,16.63
2019-04-07T16:47:32.945Z,15.10
2019-04-07T16:49:58.771Z,14.23
2019-04-07T16:52:31.099Z,16.37
2019-04-07T16:54:57.216Z,16.13
2019-04-07T16:57:28.873Z,16.20
2019-04-07T16:59:56.337Z,14.97
2019-04-07T17:02:25.192Z,16.37
2019-04-07T17:04:54.596Z,15.67
2019-04-07T17:07:23.371Z,15.33
2019-04-07T17:09:54.969Z,15.83
2019-04-07T17:12:23.907Z,17.60
2019-04-07T17:14:53.209Z,19.07
2019-04-07T17:17:23.038Z,14.70
2019-04-07T17:19:53.260Z,15.30
2019-04-07T17:22:23.126Z,15.43
2019-04-07T17:24:51.976Z,17.27
2019-04-07T17:27:20.600Z,13.93
2019-04-07T17:29:53.299Z,15.43
2019-04-07T17:32:19.979Z,16.17
2019-04-07T17:34:48.461Z,15.97
2019-04-07T17:37:17.417Z,16.90
2019-04-07T17:39:46.160Z,17.13
2019-04-07T17:42:15.542Z,15.97
2019-04-07T17:44:47.786Z,16.77
2019-04-07T17:47:14.117Z,16.17
2019-04-07T17:49:42.785Z,16.57
2019-04-07T17:52:11.616Z,16.70
2019-04-07T17:54:41.068Z,19.47
2019-04-07T17:57:10.035Z,15.40
2019-04-07T17:59:44.786Z,16.73
2019-04-07T18:02:10.954Z,16.17
2019-04-07T18:04:42.339Z,16.43
2019-04-07T18:07:10.096Z,18.03
2019-04-07T18:09:38.492Z,18.43
2019-04-07T18:12:11.910Z,17.30
2019-04-07T18:14:37.395Z,20.20
2019-04-07T18:17:06.593Z,18.20
2019-04-07T18:19:36.139Z,18.70
2019-04-07T18:22:04.800Z,20.33
2019-04-07T18:24:34.053Z,21.00
2019-04-07T18:27:02.587Z,19.80
2019-04-07T18:29:32.062Z,18.97
2019-04-07T18:32:00.670Z,19.43
2019-04-07T18:34:38.629Z,16.50
2019-04-07T18:37:07.215Z,18.97
2019-04-07T18:39:36.316Z,20.33
2019-04-07T18:42:10.311Z,18.07
2019-04-07T18:44:38.589Z,18.63
2019-04-07T18:47:05.080Z,16.53
2019-04-07T18:49:33.706Z,19.50
2019-04-07T18:52:02.196Z,20.00
2019-04-07T18:54:31.066Z,18.80
2019-04-07T18:57:01.333Z,19.20
2019-04-07T18:59:29.910Z,18.13
2019-04-07T19:01:58.381Z,16.93
2019-04-07T19:04:29.058Z,18.70
2019-04-07T19:06:57.767Z,20.00
2019-04-07T19:09:29.198Z,21.37
2019-04-07T19:12:04.260Z,19.87
2019-04-07T19:14:41.986Z,18.20
2019-04-07T19:16:58.652Z,18.40
2019-04-07T19:19:29.766Z,16.80
2019-04-07T19:21:59.275Z,17.03
2019-04-07T19:24:32.504Z,21.12
2019-04-07T19:27:05.660Z,19.30
2019-04-07T19:29:29.480Z,18.53
2019-04-07T19:31:58.390Z,18.33
2019-04-07T19:34:29.990Z,18.60
2019-04-07T19:36:58.515Z,16.80
2019-04-07T19:39:28.164Z,22.20
2019-04-07T19:42:01.444Z,17.70
2019-04-07T19:44:34.820Z,17.03
2019-04-07T19:47:01.380Z,20.97
2019-04-07T19:49:28.755Z,20.47
2019-04-07T19:52:02.380Z,18.57
2019-04-07T19:54:29.174Z,18.67
2019-04-07T19:56:58.035Z,20.57
2019-04-07T19:59:26.918Z,22.60
2019-04-07T20:01:59.065Z,19.80
2019-04-07T20:04:26.429Z,22.27
2019-04-07T20:06:58.253Z,21.30
2019-04-07T20:09:25.864Z,20.50
2019-04-07T20:11:54.855Z,20.27
2019-04-07T20:14:23.781Z,20.10
2019-04-07T20:16:53.462Z,19.07
2019-04-07T20:19:22.413Z,20.87
2019-04-07T20:21:54.721Z,19.83
2019-04-07T20:24:21.847Z,19.20
2019-04-07T20:26:52.603Z,21.67
2019-04-07T20:29:21.258Z,19.90
2019-04-07T20:31:51.973Z,21.37
2019-04-07T20:34:21.114Z,19.97
2019-04-07T20:36:51.666Z,20.43
2019-04-07T20:39:20.613Z,20.50
2019-04-07T20:41:49.500Z,23.27
2019-04-07T20:44:18.870Z,21.47
2019-04-07T20:46:47.752Z,21.77
2019-04-07T20:49:16.600Z,20.83
2019-04-07T20:51:48.066Z,22.03
2019-04-07T20:54:15.950Z,20.10
2019-04-07T20:56:46.997Z,20.57
2019-04-07T20:59:15.214Z,24.13
2019-04-07T21:01:53.988Z,23.70
2019-04-07T21:04:14.953Z,21.47
2019-04-07T21:06:45.141Z,21.30
2019-04-07T21:09:14.082Z,25.83
2019-04-07T21:11:45.881Z,21.10
2019-04-07T21:14:15.531Z,23.13
2019-04-07T21:16:44.372Z,23.03
2019-04-07T21:19:13.128Z,20.07
2019-04-07T21:21:44.482Z,22.17
2019-04-07T21:24:14.542Z,21.90
2019-04-07T21:26:44.600Z,25.20
2019-04-07T21:29:13.334Z,24.23
2019-04-07T21:31:42.954Z,21.50
2019-04-07T21:34:12.362Z,23.00
2019-04-07T21:36:41.743Z,21.33
2019-04-07T21:39:10.572Z,23.73
2019-04-07T21:41:41.516Z,21.20
2019-04-07T21:44:09.903Z,23.73
2019-04-07T21:46:38.822Z,22.17
2019-04-07T21:49:07.716Z,24.30
2019-04-07T21:51:36.515Z,22.37
2019-04-07T21:54:05.647Z,22.60
2019-04-07T21:56:34.802Z,22.30
2019-04-07T21:59:04.320Z,21.73
2019-04-07T22:01:37.731Z,24.63
2019-04-07T22:04:04.982Z,19.87
2019-04-07T22:06:33.947Z,21.57
2019-04-07T22:09:03.009Z,22.90
2019-04-07T22:11:32.568Z,25.87
2019-04-07T22:14:04.037Z,24.57
2019-04-07T22:16:34.152Z,24.13
2019-04-07T22:19:04.189Z,24.10
2019-04-07T22:21:34.083Z,23.33
2019-04-07T22:24:03.338Z,23.37
2019-04-07T22:26:33.469Z,23.47
2019-04-07T22:29:04.046Z,25.57
2019-04-07T22:31:33.211Z,27.13
2019-04-07T22:34:03.632Z,27.07
2019-04-07T22:36:32.470Z,24.47
2019-04-07T22:39:02.522Z,27.73
2019-04-07T22:41:31.700Z,25.17
2019-04-07T22:44:00.535Z,22.83
2019-04-07T22:46:29.334Z,27.77
2019-04-07T22:48:58.724Z,25.27
2019-04-07T22:51:28.588Z,28.47
2019-04-07T22:53:58.029Z,24.17
2019-04-07T22:56:27.964Z,28.77
2019-04-07T22:58:56.821Z,29.23
2019-04-07T23:01:25.707Z,26.10
2019-04-07T23:03:54.768Z,25.43
2019-04-07T23:06:24.492Z,26.70
2019-04-07T23:08:53.431Z,30.47
2019-04-07T23:11:22.509Z,28.30
2019-04-07T23:13:51.361Z,28.43
2019-04-07T23:16:20.401Z,26.70
2019-04-07T23:18:49.970Z,32.33
2019-04-07T23:21:19.249Z,29.03
2019-04-07T23:23:48.377Z,28.30
2019-04-07T23:26:17.910Z,25.83
2019-04-07T23:28:47.228Z,28.63
2019-04-07T23:31:16.072Z,29.00
2019-04-07T23:33:45.903Z,28.53
2019-04-07T23:36:14.884Z,27.97
2019-04-07T23:38:43.685Z,26.57
2019-04-07T23:41:12.590Z,31.13
2019-04-07T23:43:41.811Z,30.00
2019-04-07T23:46:20.633Z,27.03
2019-04-07T23:48:41.055Z,30.20
2019-04-07T23:51:10.209Z,34.00
2019-04-07T23:54:07.675Z,32.03
2019-04-07T23:56:39.311Z,31.23
2019-04-07T23:59:10.218Z,33.57
